sensor_id;sensor_type;location;lat;lon;timestamp;temperature;humidity
16980;DHT22;42288;52.182;21.156;2022-07-04T00:00:50;18.70;95.20
16980;DHT22;42288;52.182;21.156;2022-07-04T00:03:16;18.70;95.30
16980;DHT22;42288;52.182;21.156;2022-07-04T00:05:41;18.70;95.20
16980;DHT22;42288;52.182;21.156;2022-07-04T00:08:07;18.60;95.50
16980;DHT22;42288;52.182;21.156;2022-07-04T00:10:33;18.70;95.50
16980;DHT22;42288;52.182;21.156;2022-07-04T00:12:58;18.70;95.40
16980;DHT22;42288;52.182;21.156;2022-07-04T00:15:24;18.60;95.40
16980;DHT22;42288;52.182;21.156;2022-07-04T00:17:50;18.60;95.70
16980;DHT22;42288;52.182;21.156;2022-07-04T00:20:15;18.60;95.70
16980;DHT22;42288;52.182;21.156;2022-07-04T00:22:41;18.70;95.60
16980;DHT22;42288;52.182;21.156;2022-07-04T00:25:07;18.90;95.60
16980;DHT22;42288;52.182;21.156;2022-07-04T00:27:33;18.90;95.60
16980;DHT22;42288;52.182;21.156;2022-07-04T00:29:58;18.90;95.40
16980;DHT22;42288;52.182;21.156;2022-07-04T00:32:24;18.80;95.30
16980;DHT22;42288;52.182;21.156;2022-07-04T00:34:49;18.90;95.30
16980;DHT22;42288;52.182;21.156;2022-07-04T00:37:15;18.90;95.40
16980;DHT22;42288;52.182;21.156;2022-07-04T00:39:40;18.80;95.50
16980;DHT22;42288;52.182;21.156;2022-07-04T00:42:07;18.70;95.60
16980;DHT22;42288;52.182;21.156;2022-07-04T00:44:33;18.70;95.60
16980;DHT22;42288;52.182;21.156;2022-07-04T00:47:02;18.60;95.50
16980;DHT22;42288;52.182;21.156;2022-07-04T00:49:28;18.70;95.50
16980;DHT22;42288;52.182;21.156;2022-07-04T00:51:54;18.60;95.50
16980;DHT22;42288;52.182;21.156;2022-07-04T00:54:20;18.60;95.60
16980;DHT22;42288;52.182;21.156;2022-07-04T00:56:49;18.60;95.50
16980;DHT22;42288;52.182;21.156;2022-07-04T00:59:15;18.40;95.70
16980;DHT22;42288;52.182;21.156;2022-07-04T01:01:40;18.40;96.00
16980;DHT22;42288;52.182;21.156;2022-07-04T01:04:06;18.40;95.90
16980;DHT22;42288;52.182;21.156;2022-07-04T01:06:33;18.50;95.70
16980;DHT22;42288;52.182;21.156;2022-07-04T01:08:59;18.30;95.80
16980;DHT22;42288;52.182;21.156;2022-07-04T01:11:25;18.30;96.10
16980;DHT22;42288;52.182;21.156;2022-07-04T01:13:53;18.30;96.00
16980;DHT22;42288;52.182;21.156;2022-07-04T01:16:19;18.40;95.90
16980;DHT22;42288;52.182;21.156;2022-07-04T01:18:44;18.30;95.80
16980;DHT22;42288;52.182;21.156;2022-07-04T01:21:10;18.30;95.80
16980;DHT22;42288;52.182;21.156;2022-07-04T01:23:39;18.30;95.70
16980;DHT22;42288;52.182;21.156;2022-07-04T01:26:06;18.30;95.70
16980;DHT22;42288;52.182;21.156;2022-07-04T01:28:31;18.20;95.90
16980;DHT22;42288;52.182;21.156;2022-07-04T01:30:57;18.20;96.20
16980;DHT22;42288;52.182;21.156;2022-07-04T01:33:22;18.20;96.00
16980;DHT22;42288;52.182;21.156;2022-07-04T01:35:48;18.30;95.70
16980;DHT22;42288;52.182;21.156;2022-07-04T01:38:13;18.00;95.70
16980;DHT22;42288;52.182;21.156;2022-07-04T01:40:39;17.90;96.20
16980;DHT22;42288;52.182;21.156;2022-07-04T01:43:05;17.80;96.30
16980;DHT22;42288;52.182;21.156;2022-07-04T01:45:31;17.90;96.20
16980;DHT22;42288;52.182;21.156;2022-07-04T01:48:00;18.00;95.90
16980;DHT22;42288;52.182;21.156;2022-07-04T01:50:25;17.90;95.90
16980;DHT22;42288;52.182;21.156;2022-07-04T01:52:51;17.90;96.10
16980;DHT22;42288;52.182;21.156;2022-07-04T01:55:17;17.90;96.00
16980;DHT22;42288;52.182;21.156;2022-07-04T01:57:42;17.80;96.30
16980;DHT22;42288;52.182;21.156;2022-07-04T02:00:09;17.90;96.50
16980;DHT22;42288;52.182;21.156;2022-07-04T02:02:55;17.90;96.10
16980;DHT22;42288;52.182;21.156;2022-07-04T02:05:21;18.00;95.90
16980;DHT22;42288;52.182;21.156;2022-07-04T02:07:47;18.00;95.80
16980;DHT22;42288;52.182;21.156;2022-07-04T02:10:13;18.00;95.60
16980;DHT22;42288;52.182;21.156;2022-07-04T02:12:38;18.10;95.40
16980;DHT22;42288;52.182;21.156;2022-07-04T02:15:22;17.90;95.60
16980;DHT22;42288;52.182;21.156;2022-07-04T02:17:48;17.90;95.60
16980;DHT22;42288;52.182;21.156;2022-07-04T02:20:14;18.00;95.70
16980;DHT22;42288;52.182;21.156;2022-07-04T02:22:40;17.90;95.80
16980;DHT22;42288;52.182;21.156;2022-07-04T02:25:06;17.80;96.00
16980;DHT22;42288;52.182;21.156;2022-07-04T02:27:31;17.90;96.00
16980;DHT22;42288;52.182;21.156;2022-07-04T02:29:57;17.80;96.20
16980;DHT22;42288;52.182;21.156;2022-07-04T02:32:23;17.90;96.20
16980;DHT22;42288;52.182;21.156;2022-07-04T02:34:48;17.90;96.10
16980;DHT22;42288;52.182;21.156;2022-07-04T02:37:14;17.80;95.90
16980;DHT22;42288;52.182;21.156;2022-07-04T02:39:39;17.70;95.90
16980;DHT22;42288;52.182;21.156;2022-07-04T02:42:05;17.80;95.90
16980;DHT22;42288;52.182;21.156;2022-07-04T02:44:31;17.70;95.70
16980;DHT22;42288;52.182;21.156;2022-07-04T02:46:56;17.60;95.80
16980;DHT22;42288;52.182;21.156;2022-07-04T02:49:22;17.60;95.80
16980;DHT22;42288;52.182;21.156;2022-07-04T02:51:48;17.60;95.80
16980;DHT22;42288;52.182;21.156;2022-07-04T02:54:14;17.70;95.70
16980;DHT22;42288;52.182;21.156;2022-07-04T02:56:39;17.80;95.60
16980;DHT22;42288;52.182;21.156;2022-07-04T02:59:05;17.90;95.30
16980;DHT22;42288;52.182;21.156;2022-07-04T03:01:30;18.00;95.10
16980;DHT22;42288;52.182;21.156;2022-07-04T03:03:57;18.00;94.90
16980;DHT22;42288;52.182;21.156;2022-07-04T03:06:22;17.90;94.90
16980;DHT22;42288;52.182;21.156;2022-07-04T03:08:48;17.90;95.00
16980;DHT22;42288;52.182;21.156;2022-07-04T03:11:13;17.90;95.10
16980;DHT22;42288;52.182;21.156;2022-07-04T03:13:40;18.00;95.30
16980;DHT22;42288;52.182;21.156;2022-07-04T03:16:05;18.00;95.20
16980;DHT22;42288;52.182;21.156;2022-07-04T03:18:31;18.00;95.30
16980;DHT22;42288;52.182;21.156;2022-07-04T03:20:57;18.00;95.40
16980;DHT22;42288;52.182;21.156;2022-07-04T03:23:22;17.90;95.90
16980;DHT22;42288;52.182;21.156;2022-07-04T03:25:48;18.00;96.10
16980;DHT22;42288;52.182;21.156;2022-07-04T03:28:13;18.20;96.00
16980;DHT22;42288;52.182;21.156;2022-07-04T03:30:39;18.10;96.10
16980;DHT22;42288;52.182;21.156;2022-07-04T03:33:05;18.20;95.90
16980;DHT22;42288;52.182;21.156;2022-07-04T03:35:30;18.20;96.10
16980;DHT22;42288;52.182;21.156;2022-07-04T03:37:56;18.30;96.10
16980;DHT22;42288;52.182;21.156;2022-07-04T03:40:21;18.30;96.00
16980;DHT22;42288;52.182;21.156;2022-07-04T03:42:47;18.40;96.10
16980;DHT22;42288;52.182;21.156;2022-07-04T03:45:13;18.60;96.00
16980;DHT22;42288;52.182;21.156;2022-07-04T03:47:38;18.50;96.60
16980;DHT22;42288;52.182;21.156;2022-07-04T03:50:05;18.30;97.30
16980;DHT22;42288;52.182;21.156;2022-07-04T03:52:31;18.50;97.50
16980;DHT22;42288;52.182;21.156;2022-07-04T03:54:57;18.70;97.40
16980;DHT22;42288;52.182;21.156;2022-07-04T03:57:22;18.80;97.50
16980;DHT22;42288;52.182;21.156;2022-07-04T03:59:48;18.90;97.60
16980;DHT22;42288;52.182;21.156;2022-07-04T04:02:14;19.00;97.70
16980;DHT22;42288;52.182;21.156;2022-07-04T04:04:40;19.10;97.80
16980;DHT22;42288;52.182;21.156;2022-07-04T04:07:24;19.20;97.90
16980;DHT22;42288;52.182;21.156;2022-07-04T04:09:49;19.50;97.70
16980;DHT22;42288;52.182;21.156;2022-07-04T04:12:15;19.40;97.60
16980;DHT22;42288;52.182;21.156;2022-07-04T04:14:40;19.50;97.70
16980;DHT22;42288;52.182;21.156;2022-07-04T04:17:06;19.70;97.80
16980;DHT22;42288;52.182;21.156;2022-07-04T04:19:31;19.90;97.80
16980;DHT22;42288;52.182;21.156;2022-07-04T04:21:57;20.00;97.80
16980;DHT22;42288;52.182;21.156;2022-07-04T04:24:23;19.90;97.90
16980;DHT22;42288;52.182;21.156;2022-07-04T04:26:48;20.00;98.70
16980;DHT22;42288;52.182;21.156;2022-07-04T04:29:14;20.10;98.50
16980;DHT22;42288;52.182;21.156;2022-07-04T04:31:39;20.30;98.80
16980;DHT22;42288;52.182;21.156;2022-07-04T04:34:05;20.50;98.30
16980;DHT22;42288;52.182;21.156;2022-07-04T04:36:30;20.50;97.90
16980;DHT22;42288;52.182;21.156;2022-07-04T04:38:56;20.60;98.00
16980;DHT22;42288;52.182;21.156;2022-07-04T04:41:21;20.90;98.00
16980;DHT22;42288;52.182;21.156;2022-07-04T04:43:47;20.80;98.40
16980;DHT22;42288;52.182;21.156;2022-07-04T04:46:13;21.00;98.30
16980;DHT22;42288;52.182;21.156;2022-07-04T04:48:38;21.10;97.80
16980;DHT22;42288;52.182;21.156;2022-07-04T04:51:05;21.20;97.80
16980;DHT22;42288;52.182;21.156;2022-07-04T04:53:31;21.30;97.60
16980;DHT22;42288;52.182;21.156;2022-07-04T04:55:56;21.40;97.40
16980;DHT22;42288;52.182;21.156;2022-07-04T04:58:23;21.40;97.70
16980;DHT22;42288;52.182;21.156;2022-07-04T05:00:50;21.70;97.30
16980;DHT22;42288;52.182;21.156;2022-07-04T05:03:16;21.80;97.50
16980;DHT22;42288;52.182;21.156;2022-07-04T05:05:43;22.10;97.00
16980;DHT22;42288;52.182;21.156;2022-07-04T05:08:08;22.30;96.80
16980;DHT22;42288;52.182;21.156;2022-07-04T05:10:34;22.20;96.60
16980;DHT22;42288;52.182;21.156;2022-07-04T05:12:59;22.30;96.50
16980;DHT22;42288;52.182;21.156;2022-07-04T05:15:25;22.10;96.40
16980;DHT22;42288;52.182;21.156;2022-07-04T05:17:51;22.20;96.60
16980;DHT22;42288;52.182;21.156;2022-07-04T05:20:16;22.30;96.50
16980;DHT22;42288;52.182;21.156;2022-07-04T05:22:42;22.40;96.20
16980;DHT22;42288;52.182;21.156;2022-07-04T05:25:07;22.70;95.30
16980;DHT22;42288;52.182;21.156;2022-07-04T05:27:33;22.50;95.10
16980;DHT22;42288;52.182;21.156;2022-07-04T05:29:59;22.90;95.40
16980;DHT22;42288;52.182;21.156;2022-07-04T05:32:27;23.10;94.90
16980;DHT22;42288;52.182;21.156;2022-07-04T05:34:53;22.70;94.00
16980;DHT22;42288;52.182;21.156;2022-07-04T05:37:19;22.70;95.20
16980;DHT22;42288;52.182;21.156;2022-07-04T05:39:44;23.00;95.20
16980;DHT22;42288;52.182;21.156;2022-07-04T05:42:10;22.90;94.50
16980;DHT22;42288;52.182;21.156;2022-07-04T05:44:35;22.80;94.60
16980;DHT22;42288;52.182;21.156;2022-07-04T05:47:01;22.80;94.90
16980;DHT22;42288;52.182;21.156;2022-07-04T05:49:27;23.00;94.80
16980;DHT22;42288;52.182;21.156;2022-07-04T05:51:52;23.30;94.30
16980;DHT22;42288;52.182;21.156;2022-07-04T05:54:18;23.50;94.00
16980;DHT22;42288;52.182;21.156;2022-07-04T05:56:43;23.80;93.90
16980;DHT22;42288;52.182;21.156;2022-07-04T05:59:09;23.90;93.90
16980;DHT22;42288;52.182;21.156;2022-07-04T06:01:36;24.10;93.40
16980;DHT22;42288;52.182;21.156;2022-07-04T06:04:03;24.00;92.40
16980;DHT22;42288;52.182;21.156;2022-07-04T06:06:29;24.20;92.30
16980;DHT22;42288;52.182;21.156;2022-07-04T06:08:55;24.10;92.10
16980;DHT22;42288;52.182;21.156;2022-07-04T06:11:21;24.40;92.40
16980;DHT22;42288;52.182;21.156;2022-07-04T06:13:47;24.30;91.60
16980;DHT22;42288;52.182;21.156;2022-07-04T06:16:13;24.40;91.80
16980;DHT22;42288;52.182;21.156;2022-07-04T06:18:38;24.60;91.40
16980;DHT22;42288;52.182;21.156;2022-07-04T06:21:04;24.60;91.30
16980;DHT22;42288;52.182;21.156;2022-07-04T06:23:30;24.80;91.40
16980;DHT22;42288;52.182;21.156;2022-07-04T06:25:55;24.90;91.20
16980;DHT22;42288;52.182;21.156;2022-07-04T06:28:21;24.80;90.40
16980;DHT22;42288;52.182;21.156;2022-07-04T06:30:46;24.90;89.90
16980;DHT22;42288;52.182;21.156;2022-07-04T06:33:12;24.80;90.10
16980;DHT22;42288;52.182;21.156;2022-07-04T06:35:37;25.00;89.70
16980;DHT22;42288;52.182;21.156;2022-07-04T06:38:19;25.10;89.80
16980;DHT22;42288;52.182;21.156;2022-07-04T06:40:45;25.20;87.60
16980;DHT22;42288;52.182;21.156;2022-07-04T06:43:11;25.30;86.80
16980;DHT22;42288;52.182;21.156;2022-07-04T06:45:36;25.40;86.00
16980;DHT22;42288;52.182;21.156;2022-07-04T06:48:04;25.00;83.40
16980;DHT22;42288;52.182;21.156;2022-07-04T06:50:30;24.50;83.10
16980;DHT22;42288;52.182;21.156;2022-07-04T06:53:07;24.70;85.00
16980;DHT22;42288;52.182;21.156;2022-07-04T06:55:33;24.70;85.00
16980;DHT22;42288;52.182;21.156;2022-07-04T06:58:00;24.50;85.80
16980;DHT22;42288;52.182;21.156;2022-07-04T07:00:25;24.90;86.10
16980;DHT22;42288;52.182;21.156;2022-07-04T07:02:51;25.10;83.00
16980;DHT22;42288;52.182;21.156;2022-07-04T07:05:16;25.30;82.60
16980;DHT22;42288;52.182;21.156;2022-07-04T07:07:42;25.20;81.90
16980;DHT22;42288;52.182;21.156;2022-07-04T07:10:08;25.50;81.70
16980;DHT22;42288;52.182;21.156;2022-07-04T07:12:34;25.70;78.90
16980;DHT22;42288;52.182;21.156;2022-07-04T07:15:00;25.80;77.80
16980;DHT22;42288;52.182;21.156;2022-07-04T07:17:27;25.60;77.60
16980;DHT22;42288;52.182;21.156;2022-07-04T07:19:53;25.80;78.70
16980;DHT22;42288;52.182;21.156;2022-07-04T07:22:19;25.90;76.00
16980;DHT22;42288;52.182;21.156;2022-07-04T07:24:45;26.00;74.90
16980;DHT22;42288;52.182;21.156;2022-07-04T07:27:11;26.00;75.60
16980;DHT22;42288;52.182;21.156;2022-07-04T07:29:37;26.20;76.20
16980;DHT22;42288;52.182;21.156;2022-07-04T07:32:04;26.20;75.50
16980;DHT22;42288;52.182;21.156;2022-07-04T07:34:29;26.10;71.10
16980;DHT22;42288;52.182;21.156;2022-07-04T07:36:55;26.20;69.30
16980;DHT22;42288;52.182;21.156;2022-07-04T07:39:21;26.30;70.80
16980;DHT22;42288;52.182;21.156;2022-07-04T07:41:47;26.00;71.30
16980;DHT22;42288;52.182;21.156;2022-07-04T07:44:12;26.10;73.20
16980;DHT22;42288;52.182;21.156;2022-07-04T07:46:38;26.20;73.40
16980;DHT22;42288;52.182;21.156;2022-07-04T07:49:04;25.80;72.20
16980;DHT22;42288;52.182;21.156;2022-07-04T07:51:30;25.80;73.90
16980;DHT22;42288;52.182;21.156;2022-07-04T07:53:55;25.50;72.00
16980;DHT22;42288;52.182;21.156;2022-07-04T07:56:21;25.70;72.40
16980;DHT22;42288;52.182;21.156;2022-07-04T07:58:48;25.90;70.50
16980;DHT22;42288;52.182;21.156;2022-07-04T08:01:14;26.10;70.00
16980;DHT22;42288;52.182;21.156;2022-07-04T08:03:39;26.30;71.80
16980;DHT22;42288;52.182;21.156;2022-07-04T08:06:23;26.10;71.10
16980;DHT22;42288;52.182;21.156;2022-07-04T08:08:49;26.10;74.30
16980;DHT22;42288;52.182;21.156;2022-07-04T08:11:16;26.20;72.40
16980;DHT22;42288;52.182;21.156;2022-07-04T08:13:41;26.60;71.40
16980;DHT22;42288;52.182;21.156;2022-07-04T08:16:07;26.70;69.90
16980;DHT22;42288;52.182;21.156;2022-07-04T08:18:33;26.60;69.70
16980;DHT22;42288;52.182;21.156;2022-07-04T08:20:59;26.90;70.60
16980;DHT22;42288;52.182;21.156;2022-07-04T08:23:25;27.00;71.30
16980;DHT22;42288;52.182;21.156;2022-07-04T08:25:51;27.10;68.10
16980;DHT22;42288;52.182;21.156;2022-07-04T08:28:16;27.00;69.20
16980;DHT22;42288;52.182;21.156;2022-07-04T08:30:42;27.10;66.40
16980;DHT22;42288;52.182;21.156;2022-07-04T08:33:07;27.50;67.90
16980;DHT22;42288;52.182;21.156;2022-07-04T08:35:33;27.60;65.80
16980;DHT22;42288;52.182;21.156;2022-07-04T08:37:59;27.30;65.20
16980;DHT22;42288;52.182;21.156;2022-07-04T08:40:27;27.30;66.90
16980;DHT22;42288;52.182;21.156;2022-07-04T08:42:53;27.60;66.30
16980;DHT22;42288;52.182;21.156;2022-07-04T08:45:30;27.60;65.00
16980;DHT22;42288;52.182;21.156;2022-07-04T08:48:01;27.70;64.40
16980;DHT22;42288;52.182;21.156;2022-07-04T08:50:44;27.80;63.30
16980;DHT22;42288;52.182;21.156;2022-07-04T08:53:15;27.90;63.30
16980;DHT22;42288;52.182;21.156;2022-07-04T08:55:45;27.60;61.30
16980;DHT22;42288;52.182;21.156;2022-07-04T08:58:30;27.70;63.70
16980;DHT22;42288;52.182;21.156;2022-07-04T09:01:07;27.80;64.00
16980;DHT22;42288;52.182;21.156;2022-07-04T09:03:33;27.90;64.20
16980;DHT22;42288;52.182;21.156;2022-07-04T09:06:00;27.90;61.80
16980;DHT22;42288;52.182;21.156;2022-07-04T09:08:26;28.10;63.50
16980;DHT22;42288;52.182;21.156;2022-07-04T09:10:53;28.40;60.90
16980;DHT22;42288;52.182;21.156;2022-07-04T09:13:19;28.50;59.70
16980;DHT22;42288;52.182;21.156;2022-07-04T09:15:49;28.40;58.70
16980;DHT22;42288;52.182;21.156;2022-07-04T09:18:26;28.60;59.10
16980;DHT22;42288;52.182;21.156;2022-07-04T09:20:57;28.80;58.10
16980;DHT22;42288;52.182;21.156;2022-07-04T09:23:32;28.80;57.90
16980;DHT22;42288;52.182;21.156;2022-07-04T09:26:17;28.90;58.10
16980;DHT22;42288;52.182;21.156;2022-07-04T09:28:45;29.20;58.50
16980;DHT22;42288;52.182;21.156;2022-07-04T09:31:18;29.30;58.30
16980;DHT22;42288;52.182;21.156;2022-07-04T09:33:56;29.40;57.80
16980;DHT22;42288;52.182;21.156;2022-07-04T09:36:27;29.60;57.00
16980;DHT22;42288;52.182;21.156;2022-07-04T09:39:13;29.60;55.50
16980;DHT22;42288;52.182;21.156;2022-07-04T09:42:00;29.70;54.90
16980;DHT22;42288;52.182;21.156;2022-07-04T09:44:43;29.50;55.40
16980;DHT22;42288;52.182;21.156;2022-07-04T09:47:21;29.00;56.00
16980;DHT22;42288;52.182;21.156;2022-07-04T09:50:16;28.70;55.80
16980;DHT22;42288;52.182;21.156;2022-07-04T09:52:59;28.80;56.80
16980;DHT22;42288;52.182;21.156;2022-07-04T09:55:36;29.10;56.10
16980;DHT22;42288;52.182;21.156;2022-07-04T09:58:08;29.20;55.00
16980;DHT22;42288;52.182;21.156;2022-07-04T10:00:39;29.40;53.80
16980;DHT22;42288;52.182;21.156;2022-07-04T10:03:28;29.20;52.20
16980;DHT22;42288;52.182;21.156;2022-07-04T10:06:08;29.50;52.20
16980;DHT22;42288;52.182;21.156;2022-07-04T10:08:36;29.80;52.80
16980;DHT22;42288;52.182;21.156;2022-07-04T10:11:02;29.90;53.20
16980;DHT22;42288;52.182;21.156;2022-07-04T10:13:28;30.00;52.70
16980;DHT22;42288;52.182;21.156;2022-07-04T10:15:54;30.30;51.50
16980;DHT22;42288;52.182;21.156;2022-07-04T10:18:21;30.40;51.10
16980;DHT22;42288;52.182;21.156;2022-07-04T10:20:48;30.60;50.00
16980;DHT22;42288;52.182;21.156;2022-07-04T10:23:17;30.50;49.90
16980;DHT22;42288;52.182;21.156;2022-07-04T10:25:46;30.70;48.70
16980;DHT22;42288;52.182;21.156;2022-07-04T10:28:12;30.90;49.10
16980;DHT22;42288;52.182;21.156;2022-07-04T10:30:39;31.00;47.70
16980;DHT22;42288;52.182;21.156;2022-07-04T10:33:08;31.20;48.10
16980;DHT22;42288;52.182;21.156;2022-07-04T10:40:51;31.10;48.70
16980;DHT22;42288;52.182;21.156;2022-07-04T10:48:50;31.40;48.00
16980;DHT22;42288;52.182;21.156;2022-07-04T10:56:44;32.00;47.60
16980;DHT22;42288;52.182;21.156;2022-07-04T10:59:17;32.00;47.00
16980;DHT22;42288;52.182;21.156;2022-07-04T11:01:57;32.60;47.00
16980;DHT22;42288;52.182;21.156;2022-07-04T11:04:50;33.40;46.40
16980;DHT22;42288;52.182;21.156;2022-07-04T11:18:00;33.80;44.20
16980;DHT22;42288;52.182;21.156;2022-07-04T11:20:29;33.40;44.10
16980;DHT22;42288;52.182;21.156;2022-07-04T11:23:14;33.80;44.40
16980;DHT22;42288;52.182;21.156;2022-07-04T11:25:42;34.30;43.10
16980;DHT22;42288;52.182;21.156;2022-07-04T11:30:57;35.60;41.40
16980;DHT22;42288;52.182;21.156;2022-07-04T11:33:29;35.80;40.90
16980;DHT22;42288;52.182;21.156;2022-07-04T11:38:48;36.80;40.20
16980;DHT22;42288;52.182;21.156;2022-07-04T11:41:14;36.70;39.70
16980;DHT22;42288;52.182;21.156;2022-07-04T11:44:03;37.00;38.90
16980;DHT22;42288;52.182;21.156;2022-07-04T11:46:47;36.70;38.30
16980;DHT22;42288;52.182;21.156;2022-07-04T11:49:13;36.10;38.60
16980;DHT22;42288;52.182;21.156;2022-07-04T11:51:42;36.00;39.60
16980;DHT22;42288;52.182;21.156;2022-07-04T11:54:08;35.30;40.70
16980;DHT22;42288;52.182;21.156;2022-07-04T11:56:33;34.90;40.80
16980;DHT22;42288;52.182;21.156;2022-07-04T11:59:12;34.60;42.00
16980;DHT22;42288;52.182;21.156;2022-07-04T12:01:39;34.20;42.80
16980;DHT22;42288;52.182;21.156;2022-07-04T12:04:19;33.90;44.00
16980;DHT22;42288;52.182;21.156;2022-07-04T12:06:47;33.60;43.60
16980;DHT22;42288;52.182;21.156;2022-07-04T12:09:15;33.50;43.10
16980;DHT22;42288;52.182;21.156;2022-07-04T12:12:01;33.40;43.60
16980;DHT22;42288;52.182;21.156;2022-07-04T12:14:27;33.30;43.70
16980;DHT22;42288;52.182;21.156;2022-07-04T12:17:37;33.60;44.10
16980;DHT22;42288;52.182;21.156;2022-07-04T12:22:49;32.60;44.00
16980;DHT22;42288;52.182;21.156;2022-07-04T12:28:01;33.50;44.50
16980;DHT22;42288;52.182;21.156;2022-07-04T12:30:30;33.90;44.10
16980;DHT22;42288;52.182;21.156;2022-07-04T12:32:59;34.00;42.70
16980;DHT22;42288;52.182;21.156;2022-07-04T12:35:49;33.80;42.20
16980;DHT22;42288;52.182;21.156;2022-07-04T12:38:18;33.80;43.20
16980;DHT22;42288;52.182;21.156;2022-07-04T12:43:25;33.90;43.20
16980;DHT22;42288;52.182;21.156;2022-07-04T12:45:53;33.70;42.90
16980;DHT22;42288;52.182;21.156;2022-07-04T12:48:27;33.40;43.70
16980;DHT22;42288;52.182;21.156;2022-07-04T12:50:54;33.10;44.50
16980;DHT22;42288;52.182;21.156;2022-07-04T12:53:20;32.70;45.10
16980;DHT22;42288;52.182;21.156;2022-07-04T12:55:48;32.60;46.00
16980;DHT22;42288;52.182;21.156;2022-07-04T12:58:14;32.40;46.30
16980;DHT22;42288;52.182;21.156;2022-07-04T13:00:40;32.20;47.10
16980;DHT22;42288;52.182;21.156;2022-07-04T13:03:06;32.30;46.30
16980;DHT22;42288;52.182;21.156;2022-07-04T13:05:36;32.00;46.60
16980;DHT22;42288;52.182;21.156;2022-07-04T13:08:03;32.20;46.40
16980;DHT22;42288;52.182;21.156;2022-07-04T13:10:29;32.10;46.40
16980;DHT22;42288;52.182;21.156;2022-07-04T13:12:54;31.90;45.10
16980;DHT22;42288;52.182;21.156;2022-07-04T13:15:20;31.70;45.50
16980;DHT22;42288;52.182;21.156;2022-07-04T13:17:46;31.40;45.00
16980;DHT22;42288;52.182;21.156;2022-07-04T13:20:11;31.30;45.90
16980;DHT22;42288;52.182;21.156;2022-07-04T13:22:38;31.40;45.60
16980;DHT22;42288;52.182;21.156;2022-07-04T13:25:04;31.60;46.00
16980;DHT22;42288;52.182;21.156;2022-07-04T13:27:31;31.60;45.30
16980;DHT22;42288;52.182;21.156;2022-07-04T13:29:57;31.40;44.40
16980;DHT22;42288;52.182;21.156;2022-07-04T13:32:22;31.70;45.60
16980;DHT22;42288;52.182;21.156;2022-07-04T13:34:48;32.30;45.40
16980;DHT22;42288;52.182;21.156;2022-07-04T13:37:15;32.40;43.60
16980;DHT22;42288;52.182;21.156;2022-07-04T13:39:42;32.30;43.90
16980;DHT22;42288;52.182;21.156;2022-07-04T13:42:08;32.10;44.20
16980;DHT22;42288;52.182;21.156;2022-07-04T13:44:34;32.50;45.20
16980;DHT22;42288;52.182;21.156;2022-07-04T13:46:59;33.70;43.40
16980;DHT22;42288;52.182;21.156;2022-07-04T13:49:25;35.80;42.10
16980;DHT22;42288;52.182;21.156;2022-07-04T13:51:52;36.10;39.90
16980;DHT22;42288;52.182;21.156;2022-07-04T13:54:17;36.50;39.40
16980;DHT22;42288;52.182;21.156;2022-07-04T13:56:43;38.10;37.70
16980;DHT22;42288;52.182;21.156;2022-07-04T13:59:09;38.50;36.10
16980;DHT22;42288;52.182;21.156;2022-07-04T14:01:35;38.10;34.80
16980;DHT22;42288;52.182;21.156;2022-07-04T14:04:02;39.30;34.70
16980;DHT22;42288;52.182;21.156;2022-07-04T14:06:28;39.50;34.70
16980;DHT22;42288;52.182;21.156;2022-07-04T14:08:54;40.00;32.30
16980;DHT22;42288;52.182;21.156;2022-07-04T14:11:19;40.40;30.20
16980;DHT22;42288;52.182;21.156;2022-07-04T14:13:45;39.70;31.20
16980;DHT22;42288;52.182;21.156;2022-07-04T14:16:10;38.80;32.40
16980;DHT22;42288;52.182;21.156;2022-07-04T14:18:36;37.20;33.50
16980;DHT22;42288;52.182;21.156;2022-07-04T14:21:02;36.40;34.40
16980;DHT22;42288;52.182;21.156;2022-07-04T14:23:28;35.70;36.10
16980;DHT22;42288;52.182;21.156;2022-07-04T14:26:06;35.10;37.30
16980;DHT22;42288;52.182;21.156;2022-07-04T14:28:32;34.60;38.10
16980;DHT22;42288;52.182;21.156;2022-07-04T14:30:59;34.10;37.80
16980;DHT22;42288;52.182;21.156;2022-07-04T14:33:24;33.80;39.40
16980;DHT22;42288;52.182;21.156;2022-07-04T14:35:50;33.00;40.20
16980;DHT22;42288;52.182;21.156;2022-07-04T14:38:16;32.90;41.20
16980;DHT22;42288;52.182;21.156;2022-07-04T14:40:41;33.00;41.80
16980;DHT22;42288;52.182;21.156;2022-07-04T14:43:10;32.50;41.80
16980;DHT22;42288;52.182;21.156;2022-07-04T14:45:36;32.50;42.50
16980;DHT22;42288;52.182;21.156;2022-07-04T14:48:01;32.30;43.50
16980;DHT22;42288;52.182;21.156;2022-07-04T14:50:27;32.00;43.60
16980;DHT22;42288;52.182;21.156;2022-07-04T14:52:52;31.90;43.80
16980;DHT22;42288;52.182;21.156;2022-07-04T14:55:18;31.20;45.00
16980;DHT22;42288;52.182;21.156;2022-07-04T14:57:43;31.20;45.30
16980;DHT22;42288;52.182;21.156;2022-07-04T15:00:09;31.30;45.30
16980;DHT22;42288;52.182;21.156;2022-07-04T15:02:35;31.30;45.10
16980;DHT22;42288;52.182;21.156;2022-07-04T15:05:01;30.90;45.30
16980;DHT22;42288;52.182;21.156;2022-07-04T15:07:26;31.10;46.00
16980;DHT22;42288;52.182;21.156;2022-07-04T15:09:52;31.20;46.60
16980;DHT22;42288;52.182;21.156;2022-07-04T15:12:18;30.90;45.90
16980;DHT22;42288;52.182;21.156;2022-07-04T15:14:45;31.10;45.20
16980;DHT22;42288;52.182;21.156;2022-07-04T15:17:11;31.00;44.60
16980;DHT22;42288;52.182;21.156;2022-07-04T15:19:36;30.70;44.70
16980;DHT22;42288;52.182;21.156;2022-07-04T15:22:22;30.80;46.10
16980;DHT22;42288;52.182;21.156;2022-07-04T15:25:06;30.60;46.20
16980;DHT22;42288;52.182;21.156;2022-07-04T15:27:31;30.50;46.90
16980;DHT22;42288;52.182;21.156;2022-07-04T15:29:57;30.50;46.90
16980;DHT22;42288;52.182;21.156;2022-07-04T15:32:22;29.80;46.00
16980;DHT22;42288;52.182;21.156;2022-07-04T15:34:48;29.60;47.30
16980;DHT22;42288;52.182;21.156;2022-07-04T15:37:13;29.60;48.00
16980;DHT22;42288;52.182;21.156;2022-07-04T15:39:39;29.70;48.30
16980;DHT22;42288;52.182;21.156;2022-07-04T15:42:05;29.80;48.50
16980;DHT22;42288;52.182;21.156;2022-07-04T15:44:30;29.60;48.40
16980;DHT22;42288;52.182;21.156;2022-07-04T15:46:56;29.20;48.80
16980;DHT22;42288;52.182;21.156;2022-07-04T15:49:33;29.20;49.40
16980;DHT22;42288;52.182;21.156;2022-07-04T15:51:59;29.70;50.10
16980;DHT22;42288;52.182;21.156;2022-07-04T15:54:25;29.90;48.50
16980;DHT22;42288;52.182;21.156;2022-07-04T15:56:51;30.30;48.10
16980;DHT22;42288;52.182;21.156;2022-07-04T15:59:16;31.00;47.80